Time;durP1;ratioP1;P1;durP2;ratioP2;P2;SDS_P1;SDS_P2;PMS_P1;PMS_P2;Temp;Humidity;BMP_temperature;BMP_pressure;BME280_temperature;BME280_humidity;BME280_pressure;Samples;Min_cycle;Max_cycle;Signal;HPM_P1;HPM_P2
2022/05/17 00:01:09;;;;;;;;;;;15.40;99.90;;;;;;4950783;29;20505;-82
2022/05/17 00:03:37;;;;;;;;;;;15.00;99.90;;;;;;4949605;29;19926;-82
2022/05/17 00:06:06;;;;;;;;;;;15.00;99.90;;;;;;4934018;28;20379;-80
2022/05/17 00:08:34;;;;;;;;;;;15.00;99.90;;;;;;4985472;28;19970;-81
2022/05/17 00:11:03;;;;;;;;;;;14.90;99.90;;;;;;4968873;28;19937;-81
2022/05/17 00:13:31;;;;;;;;;;;14.90;99.90;;;;;;4969433;28;19930;-84
2022/05/17 00:15:59;;;;;;;;;;;14.90;99.90;;;;;;4936211;29;19926;-81
2022/05/17 00:18:27;;;;;;;;;;;14.80;99.90;;;;;;4949889;29;20762;-80
2022/05/17 00:20:57;;;;;;;;;;;14.80;99.90;;;;;;4948551;28;19933;-80
2022/05/17 00:23:26;;;;;;;;;;;13.50;99.90;;;;;;4950202;29;20460;-82
2022/05/17 00:25:53;;;;;;;;;;;15.50;99.90;;;;;;4933754;29;19926;-83
2022/05/17 00:28:22;;;;;;;;;;;14.70;99.90;;;;;;4948369;29;19949;-80
2022/05/17 00:30:50;;;;;;;;;;;14.70;99.90;;;;;;4969280;29;19931;-81
2022/05/17 00:33:20;;;;;;;;;;;14.80;99.90;;;;;;4970769;29;19929;-81
2022/05/17 00:35:49;;;;;;;;;;;14.80;99.90;;;;;;4974662;28;19926;-82
2022/05/17 00:38:17;;;;;;;;;;;14.70;99.90;;;;;;4986581;28;19934;-80
2022/05/17 00:40:45;;;;;;;;;;;14.70;99.90;;;;;;4979624;28;19927;-82
2022/05/17 00:43:26;;;;;;;;;;;15.10;99.90;;;;;;4987281;28;19937;-82
2022/05/17 00:45:59;;;;;;;;;;;14.60;99.90;;;;;;4969297;28;19927;-82
2022/05/17 00:48:27;;;;;;;;;;;14.60;99.90;;;;;;4951904;28;19940;-81
2022/05/17 00:50:56;;;;;;;;;;;14.60;99.90;;;;;;4936700;29;19933;-81
2022/05/17 00:53:31;;;;;;;;;;;14.60;99.90;;;;;;4933226;29;19934;-81
2022/05/17 00:56:06;;;;;;;;;;;14.30;99.90;;;;;;4966524;28;19930;-81
2022/05/17 00:58:47;;;;;;;;;;;14.50;99.90;;;;;;4964989;29;19930;-81
2022/05/17 01:01:20;;;;;;;;;;;14.20;99.90;;;;;;4966831;29;19926;-82
2022/05/17 01:03:47;;;;;;;;;;;14.50;99.90;;;;;;4932809;28;19940;-83
2022/05/17 01:06:16;;;;;;;;;;;14.50;99.90;;;;;;4965961;29;19926;-81
2022/05/17 01:08:44;;;;;;;;;;;14.50;99.90;;;;;;4948021;29;19936;-80
2022/05/17 01:11:12;;;;;;;;;;;12.70;99.90;;;;;;4953171;28;19926;-80
2022/05/17 01:16:28;;;;;;;;;;;14.40;99.90;;;;;;4991296;28;19925;-82
2022/05/17 01:18:58;;;;;;;;;;;14.40;99.90;;;;;;4991106;28;19926;-82
2022/05/17 01:21:25;;;;;;;;;;;14.30;99.90;;;;;;4991688;28;19990;-81
2022/05/17 01:23:54;;;;;;;;;;;14.30;99.90;;;;;;4990154;28;19926;-81
2022/05/17 01:26:24;;;;;;;;;;;14.30;99.90;;;;;;5005480;28;19926;-82
2022/05/17 01:28:52;;;;;;;;;;;14.20;99.90;;;;;;5004208;28;20370;-83
2022/05/17 01:31:20;;;;;;;;;;;14.20;99.90;;;;;;5004357;28;19932;-82
2022/05/17 01:33:48;;;;;;;;;;;13.60;99.90;;;;;;4971107;28;19934;-81
2022/05/17 01:36:21;;;;;;;;;;;14.10;99.90;;;;;;4986151;28;19926;-81
2022/05/17 01:38:52;;;;;;;;;;;14.10;99.90;;;;;;4971557;28;19930;-83
2022/05/17 01:41:21;;;;;;;;;;;14.10;99.90;;;;;;4967559;28;19934;-84
2022/05/17 01:43:51;;;;;;;;;;;14.70;99.90;;;;;;4966399;28;19933;-81
2022/05/17 01:46:19;;;;;;;;;;;14.00;99.90;;;;;;4951761;28;19945;-81
2022/05/17 01:48:47;;;;;;;;;;;13.90;99.90;;;;;;4985595;28;19934;-82
2022/05/17 01:51:15;;;;;;;;;;;13.90;99.90;;;;;;4986069;28;19936;-80
2022/05/17 01:53:44;;;;;;;;;;;12.40;99.90;;;;;;4988258;28;19926;-81
2022/05/17 01:56:12;;;;;;;;;;;13.80;99.90;;;;;;4995769;28;19922;-82
2022/05/17 01:58:40;;;;;;;;;;;13.80;99.90;;;;;;4956141;28;19936;-83
2022/05/17 02:01:09;;;;;;;;;;;13.80;99.90;;;;;;4972745;28;19956;-82
2022/05/17 02:03:38;;;;;;;;;;;13.80;99.90;;;;;;4956615;29;19926;-81
2022/05/17 02:06:06;;;;;;;;;;;13.70;99.90;;;;;;4970308;29;19927;-82
2022/05/17 02:08:34;;;;;;;;;;;13.70;99.90;;;;;;4970122;28;19922;-81
2022/05/17 02:11:04;;;;;;;;;;;13.60;99.90;;;;;;4970360;28;19930;-81
2022/05/17 02:13:33;;;;;;;;;;;13.60;99.90;;;;;;4972901;28;19936;-81
2022/05/17 02:16:10;;;;;;;;;;;13.90;99.90;;;;;;4967743;28;19930;-81
2022/05/17 02:18:38;;;;;;;;;;;12.60;99.90;;;;;;4950698;29;19931;-81
2022/05/17 02:21:07;;;;;;;;;;;13.60;99.90;;;;;;4950839;29;20567;-86
2022/05/17 02:23:36;;;;;;;;;;;13.50;99.90;;;;;;4949790;29;20003;-81
2022/05/17 02:26:05;;;;;;;;;;;13.40;99.90;;;;;;4933501;29;19926;-85
2022/05/17 02:28:35;;;;;;;;;;;13.40;99.90;;;;;;4947767;29;19938;-82
2022/05/17 02:31:04;;;;;;;;;;;13.40;99.90;;;;;;4954582;28;19927;-83
2022/05/17 02:33:32;;;;;;;;;;;13.30;99.90;;;;;;4967862;28;19930;-81
2022/05/17 02:36:00;;;;;;;;;;;13.30;99.90;;;;;;4964113;28;19937;-83
2022/05/17 02:38:28;;;;;;;;;;;12.60;99.90;;;;;;4933615;29;20443;-82
2022/05/17 02:40:57;;;;;;;;;;;13.20;99.90;;;;;;4967457;28;19926;-84
2022/05/17 02:43:26;;;;;;;;;;;13.20;99.90;;;;;;4992073;28;19926;-82
2022/05/17 02:45:54;;;;;;;;;;;13.10;99.90;;;;;;4982025;28;19949;-81
2022/05/17 02:48:24;;;;;;;;;;;13.10;99.90;;;;;;4973052;28;19948;-82
2022/05/17 02:50:53;;;;;;;;;;;13.10;99.90;;;;;;4964772;29;19937;-83
2022/05/17 02:53:21;;;;;;;;;;;13.00;99.90;;;;;;4934476;29;19941;-82
2022/05/17 02:55:49;;;;;;;;;;;13.00;99.90;;;;;;4950351;29;20173;-82
2022/05/17 02:58:18;;;;;;;;;;;13.00;99.90;;;;;;4947847;29;19932;-81
2022/05/17 03:00:46;;;;;;;;;;;11.90;99.90;;;;;;4926220;29;19926;-84
2022/05/17 03:03:14;;;;;;;;;;;12.90;99.90;;;;;;4958405;28;19932;-83
2022/05/17 03:05:42;;;;;;;;;;;12.90;99.90;;;;;;4984672;28;19932;-83
2022/05/17 03:08:12;;;;;;;;;;;12.80;99.90;;;;;;4998954;28;19934;-81
2022/05/17 03:10:41;;;;;;;;;;;12.80;99.90;;;;;;4979888;28;19937;-82
2022/05/17 03:13:12;;;;;;;;;;;12.70;99.90;;;;;;4985225;28;19929;-83
2022/05/17 03:15:40;;;;;;;;;;;12.70;99.90;;;;;;4968825;28;19922;-86
2022/05/17 03:18:08;;;;;;;;;;;12.50;99.90;;;;;;4951682;28;20669;-82
2022/05/17 03:20:37;;;;;;;;;;;12.60;99.90;;;;;;4968991;28;19930;-83
2022/05/17 03:23:05;;;;;;;;;;;12.60;99.90;;;;;;4970722;28;19926;-81
2022/05/17 03:25:33;;;;;;;;;;;12.50;99.90;;;;;;4972588;28;19926;-83
2022/05/17 03:28:00;;;;;;;;;;;12.50;99.90;;;;;;4955719;28;19932;-83
2022/05/17 03:30:29;;;;;;;;;;;12.50;99.90;;;;;;4955781;29;19937;-82
2022/05/17 03:32:57;;;;;;;;;;;12.50;99.90;;;;;;4970867;29;19930;-83
2022/05/17 03:35:32;;;;;;;;;;;12.40;99.90;;;;;;4953778;29;19927;-83
2022/05/17 03:37:59;;;;;;;;;;;12.40;99.90;;;;;;4954021;28;19959;-83
2022/05/17 03:40:27;;;;;;;;;;;12.40;99.90;;;;;;4984148;28;19930;-82
2022/05/17 03:42:55;;;;;;;;;;;12.40;99.90;;;;;;4970216;28;19926;-83
2022/05/17 03:45:23;;;;;;;;;;;12.40;99.90;;;;;;4988241;28;19934;-82
2022/05/17 03:47:54;;;;;;;;;;;12.40;99.90;;;;;;4971329;28;19930;-82
2022/05/17 03:50:22;;;;;;;;;;;12.40;99.90;;;;;;4972535;28;19930;-84
2022/05/17 03:52:50;;;;;;;;;;;12.40;99.90;;;;;;4940542;28;19926;-83
2022/05/17 03:55:21;;;;;;;;;;;12.30;99.90;;;;;;4972193;28;19930;-82
2022/05/17 03:57:50;;;;;;;;;;;12.30;99.90;;;;;;4987612;28;19936;-83
2022/05/17 04:00:19;;;;;;;;;;;12.30;99.90;;;;;;4964973;28;19926;-83
2022/05/17 04:02:47;;;;;;;;;;;11.60;99.90;;;;;;4952011;29;19927;-83
2022/05/17 04:05:16;;;;;;;;;;;12.20;99.90;;;;;;4969717;29;20563;-84
2022/05/17 04:07:48;;;;;;;;;;;12.30;99.90;;;;;;4935437;29;19933;-83
2022/05/17 04:10:18;;;;;;;;;;;12.30;99.90;;;;;;4965021;28;19937;-81
2022/05/17 04:12:47;;;;;;;;;;;12.20;99.90;;;;;;5008178;28;19932;-86
2022/05/17 04:15:19;;;;;;;;;;;12.20;99.90;;;;;;4982904;28;19930;-82
2022/05/17 04:17:51;;;;;;;;;;;12.30;99.90;;;;;;4992782;28;19945;-81
2022/05/17 04:20:39;;;;;;;;;;;12.20;99.90;;;;;;4964939;29;19933;-81
2022/05/17 04:23:10;;;;;;;;;;;12.40;99.90;;;;;;4955443;28;19926;-81
2022/05/17 04:25:39;;;;;;;;;;;12.20;99.90;;;;;;4957817;28;19930;-83
2022/05/17 04:28:17;;;;;;;;;;;12.20;99.90;;;;;;5003586;28;19934;-82
2022/05/17 04:30:45;;;;;;;;;;;12.30;99.90;;;;;;4968440;28;19926;-83
2022/05/17 04:33:13;;;;;;;;;;;12.30;99.90;;;;;;4971189;28;19930;-83
2022/05/17 04:35:42;;;;;;;;;;;12.30;99.90;;;;;;5003711;28;19937;-82
2022/05/17 04:38:10;;;;;;;;;;;12.30;99.90;;;;;;4990253;28;19930;-82
2022/05/17 04:40:41;;;;;;;;;;;12.70;99.90;;;;;;4979940;28;19926;-82
2022/05/17 04:43:10;;;;;;;;;;;12.40;99.90;;;;;;4959756;28;20484;-85
2022/05/17 04:45:39;;;;;;;;;;;12.50;99.90;;;;;;4987450;28;20362;-81
2022/05/17 04:48:07;;;;;;;;;;;12.50;99.90;;;;;;4972115;28;19934;-83
2022/05/17 04:50:37;;;;;;;;;;;12.50;99.90;;;;;;4953713;28;19926;-86
2022/05/17 04:53:05;;;;;;;;;;;12.60;99.90;;;;;;4933107;29;19946;-85
2022/05/17 04:55:32;;;;;;;;;;;12.60;99.90;;;;;;4947833;29;19937;-81
2022/05/17 04:58:00;;;;;;;;;;;12.70;99.90;;;;;;4947681;29;19942;-82
2022/05/17 05:00:28;;;;;;;;;;;12.70;99.90;;;;;;4960763;28;19930;-83
2022/05/17 05:06:27;;;;;;;;;;;12.80;99.90;;;;;;4984102;28;20022;-82
2022/05/17 05:09:23;;;;;;;;;;;12.90;99.90;;;;;;4950673;28;19922;-81
2022/05/17 05:12:10;;;;;;;;;;;13.10;99.90;;;;;;4899094;29;19927;-89
2022/05/17 05:14:39;;;;;;;;;;;13.20;99.90;;;;;;4908028;29;19930;-89
2022/05/17 05:17:10;;;;;;;;;;;13.30;99.90;;;;;;4922867;29;19927;-89
2022/05/17 05:19:47;;;;;;;;;;;13.40;99.90;;;;;;4895526;29;19942;-88
2022/05/17 05:22:18;;;;;;;;;;;13.60;99.90;;;;;;4873457;29;19928;-88
2022/05/17 05:24:46;;;;;;;;;;;13.60;99.90;;;;;;4885561;29;19931;-89
2022/05/17 05:27:14;;;;;;;;;;;13.70;99.90;;;;;;4867961;29;19942;-87
2022/05/17 05:29:43;;;;;;;;;;;13.80;99.90;;;;;;4872425;29;20380;-89
2022/05/17 05:32:14;;;;;;;;;;;13.90;99.90;;;;;;4869839;29;19931;-90
2022/05/17 05:34:42;;;;;;;;;;;14.00;99.90;;;;;;4870396;29;19931;-89
2022/05/17 05:37:10;;;;;;;;;;;14.00;99.90;;;;;;4870222;29;19927;-89
2022/05/17 05:39:37;;;;;;;;;;;15.30;99.90;;;;;;4885953;29;19931;-91
2022/05/17 05:42:06;;;;;;;;;;;14.20;99.90;;;;;;4899164;29;20402;-89
2022/05/17 05:44:34;;;;;;;;;;;14.30;99.90;;;;;;4888353;29;20402;-89
2022/05/17 05:47:04;;;;;;;;;;;13.60;99.90;;;;;;4890613;29;19930;-89
2022/05/17 05:49:32;;;;;;;;;;;14.50;99.90;;;;;;4894066;29;19933;-90
2022/05/17 05:52:02;;;;;;;;;;;14.50;99.90;;;;;;4886569;29;19935;-91
2022/05/17 05:54:30;;;;;;;;;;;14.60;99.90;;;;;;4915387;29;19934;-89
2022/05/17 05:56:59;;;;;;;;;;;14.70;99.90;;;;;;4904431;29;19938;-90
2022/05/17 05:59:29;;;;;;;;;;;14.80;99.90;;;;;;4877469;29;19931;-90
2022/05/17 06:01:58;;;;;;;;;;;14.50;99.90;;;;;;4910179;29;19931;-90
2022/05/17 06:04:30;;;;;;;;;;;15.00;99.90;;;;;;4885189;29;19927;-89
2022/05/17 06:07:01;;;;;;;;;;;15.60;99.90;;;;;;4899891;29;19930;-90
2022/05/17 06:09:31;;;;;;;;;;;15.10;99.90;;;;;;4901040;29;19938;-90
2022/05/17 06:11:59;;;;;;;;;;;15.10;99.90;;;;;;4916202;29;20394;-89
2022/05/17 06:14:29;;;;;;;;;;;15.20;99.90;;;;;;4905382;29;19931;-90
2022/05/17 06:16:57;;;;;;;;;;;15.30;99.90;;;;;;4921925;29;19927;-91
2022/05/17 06:19:30;;;;;;;;;;;15.30;99.90;;;;;;4920083;29;20326;-89
2022/05/17 06:22:06;;;;;;;;;;;15.40;99.90;;;;;;4911570;29;19931;-90
2022/05/17 06:24:37;;;;;;;;;;;15.40;99.90;;;;;;4908331;29;19927;-89
2022/05/17 06:27:10;;;;;;;;;;;15.40;99.90;;;;;;4920794;29;19935;-89
2022/05/17 06:29:40;;;;;;;;;;;15.40;99.90;;;;;;4914512;29;19931;-91
2022/05/17 06:32:09;;;;;;;;;;;15.40;99.90;;;;;;4892755;29;19927;-90
2022/05/17 06:34:38;;;;;;;;;;;15.50;99.90;;;;;;4903962;29;19937;-90
2022/05/17 06:37:06;;;;;;;;;;;15.50;99.90;;;;;;4928548;29;20291;-89
2022/05/17 06:39:34;;;;;;;;;;;15.60;99.90;;;;;;4907907;29;19951;-91
2022/05/17 06:42:13;;;;;;;;;;;14.60;99.90;;;;;;4943200;29;19937;-91
2022/05/17 06:44:45;;;;;;;;;;;15.70;99.90;;;;;;4916629;29;19931;-92
2022/05/17 06:47:16;;;;;;;;;;;15.70;99.90;;;;;;4892718;29;20326;-91
2022/05/17 06:49:44;;;;;;;;;;;15.70;99.90;;;;;;4905592;29;19926;-90
2022/05/17 06:52:23;;;;;;;;;;;16.10;99.90;;;;;;4896193;29;19927;-89
2022/05/17 06:54:51;;;;;;;;;;;15.80;99.90;;;;;;4919046;23;19942;-79
2022/05/17 06:57:19;;;;;;;;;;;15.90;99.90;;;;;;4903103;29;19931;-79
2022/05/17 06:59:47;;;;;;;;;;;15.80;99.90;;;;;;4939812;29;19931;-79
2022/05/17 07:02:15;;;;;;;;;;;16.00;99.90;;;;;;4942719;29;19935;-82
2022/05/17 07:04:43;;;;;;;;;;;16.20;99.90;;;;;;4942161;29;19930;-79
2022/05/17 07:07:10;;;;;;;;;;;16.30;99.90;;;;;;4927565;29;19946;-80
2022/05/17 07:09:38;;;;;;;;;;;16.30;99.90;;;;;;4904401;29;19942;-78
2022/05/17 07:14:53;;;;;;;;;;;16.70;99.90;;;;;;4936823;29;19931;-82
2022/05/17 07:17:22;;;;;;;;;;;16.80;99.90;;;;;;4922373;29;20390;-79
2022/05/17 07:19:49;;;;;;;;;;;17.00;99.90;;;;;;4924247;29;19927;-81
2022/05/17 07:22:18;;;;;;;;;;;17.10;99.90;;;;;;4905979;29;19937;-81
2022/05/17 07:24:46;;;;;;;;;;;17.20;99.90;;;;;;4924802;29;20005;-80
2022/05/17 07:27:14;;;;;;;;;;;17.30;99.90;;;;;;4924948;29;20331;-79
2022/05/17 07:29:52;;;;;;;;;;;17.40;99.90;;;;;;4912937;29;19933;-83
2022/05/17 07:32:20;;;;;;;;;;;17.50;99.90;;;;;;4906826;29;19928;-78
2022/05/17 07:34:48;;;;;;;;;;;17.60;99.90;;;;;;4921324;29;19928;-78
2022/05/17 07:37:16;;;;;;;;;;;17.70;99.90;;;;;;4906188;29;19935;-84
2022/05/17 07:39:44;;;;;;;;;;;17.80;99.90;;;;;;4931067;29;19927;-79
2022/05/17 07:42:13;;;;;;;;;;;18.00;99.90;;;;;;4903191;29;19928;-82
2022/05/17 07:44:42;;;;;;;;;;;18.10;99.90;;;;;;4923751;29;19927;-78
2022/05/17 07:47:16;;;;;;;;;;;18.30;99.90;;;;;;4932054;29;19927;-79
2022/05/17 07:49:44;;;;;;;;;;;18.40;99.90;;;;;;4902373;29;19927;-78
2022/05/17 07:52:12;;;;;;;;;;;18.60;99.90;;;;;;4892539;29;19927;-80
2022/05/17 07:54:41;;;;;;;;;;;18.70;99.90;;;;;;4895578;29;19934;-78
2022/05/17 07:57:09;;;;;;;;;;;18.70;99.90;;;;;;4901817;29;19937;-79
2022/05/17 07:59:37;;;;;;;;;;;18.70;99.90;;;;;;4879450;29;19939;-79
2022/05/17 08:02:06;;;;;;;;;;;18.80;99.90;;;;;;4889962;29;19932;-79
2022/05/17 08:04:34;;;;;;;;;;;18.80;99.90;;;;;;4904839;29;19947;-78
2022/05/17 08:07:04;;;;;;;;;;;18.90;99.90;;;;;;4922080;29;19954;-79
2022/05/17 08:09:35;;;;;;;;;;;18.90;99.90;;;;;;4892020;29;19927;-78
2022/05/17 08:12:07;;;;;;;;;;;19.10;99.90;;;;;;4891831;29;20065;-79
2022/05/17 08:14:35;;;;;;;;;;;19.20;99.90;;;;;;4908920;29;20441;-79
2022/05/17 08:17:13;;;;;;;;;;;19.30;99.90;;;;;;4891168;29;19946;-79
2022/05/17 08:19:45;;;;;;;;;;;19.40;99.90;;;;;;4908226;29;19938;-79
2022/05/17 08:22:14;;;;;;;;;;;19.30;99.90;;;;;;4903795;29;20168;-79
2022/05/17 08:27:37;;;;;;;;;;;19.40;99.90;;;;;;4908209;29;20259;-78
2022/05/17 08:30:20;;;;;;;;;;;19.40;99.90;;;;;;4889591;29;19927;-79
2022/05/17 08:35:36;;;;;;;;;;;19.30;99.90;;;;;;4887460;29;19928;-78
2022/05/17 08:38:06;;;;;;;;;;;19.30;99.90;;;;;;4902323;29;19928;-79
2022/05/17 08:40:38;;;;;;;;;;;19.20;99.90;;;;;;4917199;29;19932;-78
2022/05/17 08:43:24;;;;;;;;;;;19.20;99.90;;;;;;4871051;29;19927;-79
2022/05/17 08:46:03;;;;;;;;;;;19.20;99.90;;;;;;4905582;29;20533;-79
2022/05/17 08:48:46;;;;;;;;;;;19.30;99.90;;;;;;4904069;29;19935;-78
2022/05/17 08:51:16;;;;;;;;;;;19.30;99.90;;;;;;4918398;29;19934;-79
2022/05/17 08:53:45;;;;;;;;;;;19.40;99.90;;;;;;4908188;29;19931;-78
2022/05/17 08:56:14;;;;;;;;;;;19.50;99.90;;;;;;4936773;29;20117;-79
2022/05/17 08:58:45;;;;;;;;;;;19.60;99.90;;;;;;4904290;29;19927;-80
2022/05/17 09:01:18;;;;;;;;;;;19.70;99.90;;;;;;4924339;29;19931;-80
2022/05/17 09:03:53;;;;;;;;;;;19.40;99.90;;;;;;4925098;29;20297;-79
2022/05/17 09:06:35;;;;;;;;;;;20.00;99.90;;;;;;4938654;29;20369;-78
2022/05/17 09:09:12;;;;;;;;;;;20.10;99.90;;;;;;4924155;29;19935;-78
2022/05/17 09:12:00;;;;;;;;;;;20.20;99.90;;;;;;4925878;29;19934;-80
2022/05/17 09:14:30;;;;;;;;;;;20.30;99.90;;;;;;4909926;29;19935;-77
2022/05/17 09:17:24;;;;;;;;;;;20.40;99.90;;;;;;4926359;29;20427;-81
2022/05/17 09:19:52;;;;;;;;;;;20.50;99.90;;;;;;4921039;29;19927;-78
2022/05/17 09:22:21;;;;;;;;;;;20.60;99.90;;;;;;4902090;29;19927;-79
2022/05/17 09:24:57;;;;;;;;;;;20.60;99.90;;;;;;4941456;29;19938;-81
2022/05/17 09:27:30;;;;;;;;;;;20.80;99.90;;;;;;4925641;29;19955;-82
2022/05/17 09:30:12;;;;;;;;;;;20.90;99.90;;;;;;4926261;29;19951;-79
2022/05/17 09:32:44;;;;;;;;;;;21.00;99.90;;;;;;4911404;29;19927;-80
2022/05/17 09:35:15;;;;;;;;;;;21.00;99.90;;;;;;4927974;29;19927;-81
2022/05/17 09:37:46;;;;;;;;;;;21.10;99.60;;;;;;4925363;29;19927;-80
2022/05/17 09:40:20;;;;;;;;;;;21.20;99.40;;;;;;4896489;29;19927;-81
2022/05/17 09:42:57;;;;;;;;;;;21.20;99.30;;;;;;4920419;29;20265;-79
2022/05/17 09:45:49;;;;;;;;;;;21.90;99.50;;;;;;4909571;29;19938;-79
2022/05/17 09:48:26;;;;;;;;;;;21.40;99.00;;;;;;4923987;29;19957;-78
2022/05/17 09:53:50;;;;;;;;;;;21.70;98.70;;;;;;4924322;29;19931;-77
2022/05/17 09:56:24;;;;;;;;;;;21.70;99.10;;;;;;4904133;29;19950;-77
2022/05/17 09:58:53;;;;;;;;;;;21.80;98.00;;;;;;4932842;29;19927;-78
2022/05/17 10:01:26;;;;;;;;;;;22.00;98.20;;;;;;4923791;29;19942;-78
2022/05/17 10:04:04;;;;;;;;;;;22.10;98.10;;;;;;4905228;29;19953;-78
2022/05/17 10:06:42;;;;;;;;;;;22.30;97.80;;;;;;4937932;29;19931;-78
2022/05/17 10:09:12;;;;;;;;;;;22.40;97.40;;;;;;4906803;29;19942;-79
2022/05/17 10:11:39;;;;;;;;;;;22.50;97.30;;;;;;4908497;29;19931;-82
2022/05/17 10:14:15;;;;;;;;;;;22.60;97.10;;;;;;4934046;29;19931;-77
2022/05/17 10:16:52;;;;;;;;;;;22.80;96.20;;;;;;4892313;29;20369;-79
2022/05/17 10:19:34;;;;;;;;;;;22.90;96.60;;;;;;4920129;29;20345;-80
2022/05/17 10:22:05;;;;;;;;;;;23.10;95.70;;;;;;4907306;29;20352;-78
2022/05/17 10:24:35;;;;;;;;;;;23.20;95.80;;;;;;4925064;29;19927;-79
2022/05/17 10:27:27;;;;;;;;;;;23.20;96.10;;;;;;4907971;29;19931;-79
2022/05/17 10:29:56;;;;;;;;;;;23.30;95.10;;;;;;4901442;29;19931;-78
2022/05/17 10:32:37;;;;;;;;;;;23.40;95.40;;;;;;4923410;29;19948;-79
2022/05/17 10:35:16;;;;;;;;;;;23.50;94.50;;;;;;4903651;29;19932;-80
2022/05/17 10:37:46;;;;;;;;;;;23.60;94.60;;;;;;4908231;29;19931;-78
2022/05/17 10:40:16;;;;;;;;;;;23.60;94.70;;;;;;4905804;29;19935;-79
2022/05/17 10:42:44;;;;;;;;;;;23.70;93.90;;;;;;4938691;29;20399;-85
2022/05/17 10:45:25;;;;;;;;;;;23.70;93.30;;;;;;4918167;29;19950;-80
2022/05/17 10:48:11;;;;;;;;;;;23.70;93.80;;;;;;4919503;29;20430;-79
2022/05/17 10:51:00;;;;;;;;;;;23.60;92.60;;;;;;4921172;29;19942;-79
2022/05/17 10:53:35;;;;;;;;;;;23.70;93.20;;;;;;4919778;29;19942;-80
2022/05/17 10:56:06;;;;;;;;;;;23.70;92.50;;;;;;4922748;29;19935;-79
2022/05/17 10:58:45;;;;;;;;;;;23.80;92.60;;;;;;4920977;29;19927;-76
2022/05/17 11:01:22;;;;;;;;;;;23.90;92.60;;;;;;4906628;29;19942;-81
2022/05/17 11:03:59;;;;;;;;;;;24.30;92.70;;;;;;4907849;29;20322;-78
2022/05/17 11:06:35;;;;;;;;;;;24.30;92.50;;;;;;4895240;29;19934;-84
2022/05/17 11:09:33;;;;;;;;;;;24.50;91.30;;;;;;4919065;29;19928;-79
2022/05/17 11:12:06;;;;;;;;;;;24.60;91.40;;;;;;4884249;29;19935;-81
2022/05/17 11:14:47;;;;;;;;;;;24.70;91.50;;;;;;4909473;29;19927;-79
2022/05/17 11:17:18;;;;;;;;;;;24.90;91.10;;;;;;4922369;29;19938;-79
2022/05/17 11:19:52;;;;;;;;;;;25.00;90.90;;;;;;4920941;29;19931;-78
2022/05/17 11:22:33;;;;;;;;;;;25.20;91.00;;;;;;4906319;29;19928;-79
2022/05/17 11:25:13;;;;;;;;;;;25.40;89.80;;;;;;4924289;29;19937;-78
2022/05/17 11:28:02;;;;;;;;;;;25.50;90.60;;;;;;4925829;29;20617;-84
2022/05/17 11:30:44;;;;;;;;;;;25.60;90.30;;;;;;4892957;29;19934;-79
2022/05/17 11:33:24;;;;;;;;;;;25.60;86.70;;;;;;4924568;29;19938;-85
2022/05/17 11:35:55;;;;;;;;;;;25.60;87.30;;;;;;4925575;29;20295;-78
2022/05/17 11:38:49;;;;;;;;;;;25.60;89.10;;;;;;4925665;29;19954;-79
2022/05/17 11:41:19;;;;;;;;;;;25.60;88.00;;;;;;4923586;29;20338;-79
2022/05/17 11:43:47;;;;;;;;;;;25.90;89.90;;;;;;4909312;29;19931;-82
2022/05/17 11:46:24;;;;;;;;;;;26.00;87.60;;;;;;4906418;29;19934;-78
2022/05/17 11:49:00;;;;;;;;;;;26.10;87.50;;;;;;4910572;29;19934;-78
2022/05/17 11:51:31;;;;;;;;;;;26.10;87.80;;;;;;4928261;29;19942;-78
2022/05/17 11:54:00;;;;;;;;;;;26.20;88.60;;;;;;4925700;29;19942;-77
2022/05/17 11:56:29;;;;;;;;;;;26.30;88.10;;;;;;4913825;29;19938;-77
2022/05/17 11:59:12;;;;;;;;;;;26.60;86.90;;;;;;4894995;29;19927;-79
2022/05/17 12:01:44;;;;;;;;;;;26.70;86.60;;;;;;4927172;29;19938;-88
2022/05/17 12:04:19;;;;;;;;;;;26.90;87.30;;;;;;4922594;29;19927;-80
2022/05/17 12:06:49;;;;;;;;;;;27.10;86.40;;;;;;4910883;29;19931;-79
2022/05/17 12:09:23;;;;;;;;;;;27.20;86.00;;;;;;4903629;29;19938;-80
2022/05/17 12:12:10;;;;;;;;;;;27.30;87.00;;;;;;4926587;29;19928;-78
2022/05/17 12:14:52;;;;;;;;;;;27.30;84.20;;;;;;4926650;29;19942;-82
2022/05/17 12:17:24;;;;;;;;;;;26.50;84.10;;;;;;4906419;29;19927;-79
2022/05/17 12:20:01;;;;;;;;;;;27.60;84.50;;;;;;4905612;29;19927;-82
2022/05/17 12:22:39;;;;;;;;;;;27.70;85.20;;;;;;4908211;29;19942;-83
2022/05/17 12:25:08;;;;;;;;;;;27.70;85.90;;;;;;4904452;29;19951;-79
2022/05/17 12:27:40;;;;;;;;;;;27.80;84.90;;;;;;4908277;29;19927;-78
2022/05/17 12:33:00;;;;;;;;;;;28.10;84.90;;;;;;4922628;29;19942;-84
2022/05/17 12:35:30;;;;;;;;;;;28.10;84.10;;;;;;4941308;29;19927;-78
2022/05/17 12:37:58;;;;;;;;;;;28.10;82.80;;;;;;4941171;29;19927;-81
2022/05/17 12:43:14;;;;;;;;;;;28.10;84.50;;;;;;4941107;29;19928;-79
2022/05/17 12:45:46;;;;;;;;;;;28.20;84.90;;;;;;4908225;29;19927;-79
2022/05/17 12:48:26;;;;;;;;;;;28.30;84.60;;;;;;4909616;29;20289;-78
2022/05/17 12:50:58;;;;;;;;;;;28.40;82.80;;;;;;4923006;29;19942;-84
2022/05/17 12:53:44;;;;;;;;;;;28.40;83.30;;;;;;4939275;29;20394;-79
2022/05/17 12:56:22;;;;;;;;;;;28.40;83.60;;;;;;4925134;29;20401;-79
2022/05/17 12:58:54;;;;;;;;;;;28.40;81.50;;;;;;4927336;29;19946;-83
2022/05/17 13:01:27;;;;;;;;;;;28.30;82.60;;;;;;4925682;29;19931;-79
2022/05/17 13:03:57;;;;;;;;;;;28.30;83.60;;;;;;4920723;29;19938;-79
2022/05/17 13:06:32;;;;;;;;;;;28.30;83.70;;;;;;4910846;29;19934;-79
2022/05/17 13:09:00;;;;;;;;;;;28.40;82.20;;;;;;4895501;29;19931;-78
2022/05/17 13:11:31;;;;;;;;;;;28.30;83.60;;;;;;4931406;29;19942;-78
2022/05/17 13:14:06;;;;;;;;;;;28.30;83.40;;;;;;4909183;29;19931;-81
2022/05/17 13:16:37;;;;;;;;;;;28.30;82.80;;;;;;4926522;29;19930;-78
2022/05/17 13:19:08;;;;;;;;;;;28.30;83.10;;;;;;4919412;29;19962;-78
2022/05/17 13:21:38;;;;;;;;;;;28.30;83.10;;;;;;4924430;29;19931;-81
2022/05/17 13:24:08;;;;;;;;;;;28.40;83.10;;;;;;4925328;29;19927;-79
2022/05/17 13:26:42;;;;;;;;;;;28.50;81.10;;;;;;4926455;29;19942;-80
2022/05/17 13:29:27;;;;;;;;;;;28.50;81.60;;;;;;4901527;29;19935;-82
2022/05/17 13:31:57;;;;;;;;;;;28.50;81.80;;;;;;4926015;29;20324;-79
2022/05/17 13:34:26;;;;;;;;;;;28.50;81.80;;;;;;4908698;29;19931;-83
2022/05/17 13:37:03;;;;;;;;;;;28.00;82.30;;;;;;4908713;29;19927;-85
2022/05/17 13:39:39;;;;;;;;;;;28.60;80.60;;;;;;4911556;29;19928;-83
2022/05/17 13:42:17;;;;;;;;;;;28.60;82.00;;;;;;4934422;29;19931;-83
2022/05/17 13:44:51;;;;;;;;;;;28.60;81.20;;;;;;4927396;29;20362;-83
2022/05/17 13:47:40;;;;;;;;;;;28.60;81.40;;;;;;4907013;29;19934;-84
2022/05/17 13:50:17;;;;;;;;;;;28.80;82.00;;;;;;4907958;29;19932;-84
2022/05/17 13:52:53;;;;;;;;;;;29.10;81.10;;;;;;4893202;29;19932;-83
2022/05/17 13:55:33;;;;;;;;;;;29.20;81.20;;;;;;4938131;29;19927;-83
2022/05/17 13:58:07;;;;;;;;;;;29.90;79.40;;;;;;4939765;29;19935;-83
2022/05/17 14:00:37;;;;;;;;;;;30.00;78.80;;;;;;4909406;29;19927;-86
2022/05/17 14:03:18;;;;;;;;;;;30.50;78.60;;;;;;4938534;29;19927;-85
2022/05/17 14:05:54;;;;;;;;;;;30.60;77.60;;;;;;4924127;29;20287;-85
2022/05/17 14:14:11;;;;;;;;;;;31.10;75.80;;;;;;4907008;29;20554;-83
2022/05/17 14:16:42;;;;;;;;;;;31.00;74.70;;;;;;4890554;29;19938;-83
2022/05/17 14:19:12;;;;;;;;;;;31.20;75.00;;;;;;4905692;29;20369;-82
2022/05/17 14:21:42;;;;;;;;;;;31.40;73.90;;;;;;4939599;29;19942;-84
2022/05/17 14:24:14;;;;;;;;;;;31.70;72.40;;;;;;4908665;29;19928;-81
2022/05/17 14:26:44;;;;;;;;;;;31.90;72.60;;;;;;4940331;29;19934;-82
2022/05/17 14:29:13;;;;;;;;;;;32.00;69.20;;;;;;4920092;29;19934;-82
2022/05/17 14:31:42;;;;;;;;;;;31.90;70.40;;;;;;4906808;29;19931;-84
2022/05/17 14:34:31;;;;;;;;;;;32.20;70.90;;;;;;4922082;29;19943;-82
2022/05/17 14:37:04;;;;;;;;;;;32.30;68.70;;;;;;4931517;29;19931;-84
2022/05/17 14:39:33;;;;;;;;;;;32.50;68.30;;;;;;4930930;29;19935;-84
2022/05/17 14:42:03;;;;;;;;;;;32.60;68.40;;;;;;4902725;29;19941;-83
2022/05/17 14:44:31;;;;;;;;;;;32.60;66.60;;;;;;4933743;29;19946;-83
2022/05/17 14:47:08;;;;;;;;;;;32.90;68.50;;;;;;4902486;29;19932;-84
2022/05/17 14:49:37;;;;;;;;;;;32.80;66.30;;;;;;4903836;29;19931;-84
2022/05/17 14:52:07;;;;;;;;;;;32.70;67.20;;;;;;4920398;29;19927;-84
2022/05/17 14:54:37;;;;;;;;;;;33.60;65.20;;;;;;4854379;29;1879352;-83
2022/05/17 14:57:06;;;;;;;;;;;32.70;64.50;;;;;;4936768;29;19931;-85
2022/05/17 14:59:36;;;;;;;;;;;32.80;64.60;;;;;;4882812;29;19931;-85
2022/05/17 15:02:09;;;;;;;;;;;32.50;64.90;;;;;;4930296;29;19946;-84
2022/05/17 15:05:33;;;;;;;;;;;33.10;63.30;;;;;;4883689;29;19942;-83
2022/05/17 15:08:09;;;;;;;;;;;33.50;62.60;;;;;;4882504;29;19936;-84
2022/05/17 15:10:38;;;;;;;;;;;32.30;59.80;;;;;;4869990;29;19927;-83
2022/05/17 15:13:05;;;;;;;;;;;33.70;62.70;;;;;;4846263;29;19928;-85